Tiempo atmosférico en la estación meteorológica de Cazorla, Jaén (799 m.)

Fecha
DESCASC
Temp. máxima en grados centígrados (hora)
DESCASC
Temp. mínima en grados centígrados (hora)
DESCASC
Temp. media en grados centígrados
DESCASC
Racha de viento máxima en m/sg (hora)
DESCASC
Velocidad máxima media en intervalos de 10 minutos(hora)
DESCASC
Precipitaciones diarias en mm
DESCASC
Precipitaciones de 00:00 a 06:00 en mm
DESCASC
Precipitaciones de 06:00 a 12:00 en mm
DESCASC
Precipitaciones de 12:00 a 18:00 en mm
DESCASC
Precipitaciones de 18:00 a 24:00 en mm
DESCASC
21-08-2017 35.7 (17:10) 19.3 (07:40) 27.5 7.22 (18:20) 2.78 (20:20) -- -- -- -- --
20-08-2017 37.1 (17:00) 19.1 (07:10) 28.1 5.56 (16:30) 2.5 (22:00) -- -- -- -- --
19-08-2017 37.3 (16:30) 23.1 (09:00) 30.2 7.22 (16:40) 3.06 (16:40) -- -- -- -- --
18-08-2017 37.3 (16:50) 20.8 (08:20) 29 5.83 (17:00) 2.5 (22:20) -- -- -- -- --
17-08-2017 36.4 (17:00) 22.1 (00:00) 29.3 6.11 (17:30) 2.78 (01:40) -- -- -- -- --
16-08-2017 35.4 (17:10) 21.1 (00:00) 28.3 7.22 (16:30) 3.06 (17:50) -- -- -- -- --
15-08-2017 35 (16:50) 19.1 (00:00) 27.1 6.39 (18:30) 3.06 (18:50) -- -- -- -- --
14-08-2017 35.4 (17:10) 17.8 (06:50) 26.6 8.61 (19:20) 4.72 (20:10) -- -- -- -- --
13-08-2017 33.6 (17:20) 16.3 (00:00) 24.9 10 (20:00) 5.28 (20:20) -- -- -- -- --
12-08-2017 32.8 (16:40) 16.2 (00:00) 24.5 6.67 (20:30) 3.61 (21:20) -- -- -- -- --
11-08-2017 31.4 (17:20) 15.9 (00:00) 23.6 5.28 (14:50) 2.22 (17:20) -- -- -- -- --
10-08-2017 30.1 (16:50) 15.4 (00:00) 22.8 6.11 (17:00) 2.5 (18:50) -- -- -- -- --
09-08-2017 30.7 (17:10) 16.5 (00:00) 23.6 6.11 (18:00) 2.78 (20:00) -- -- -- -- --
08-08-2017 33.3 (16:30) 20.6 (00:00) 26.9 8.61 (14:40) 3.33 (18:50) -- -- -- -- --
07-08-2017 -- (--) -- (--) -- -- (--) -- (--) -- -- -- -- --
06-08-2017 -- (--) -- (--) -- -- (--) -- (--) -- -- -- -- --
05-08-2017 38.2 (17:10) 24.8 (00:00) 31.5 7.78 (16:10) 3.33 (16:10) -- -- -- -- --
04-08-2017 38.5 (17:10) 22.7 (00:00) 30.6 6.11 (18:50) 3.06 (22:10) -- -- -- -- --
03-08-2017 35.9 (18:00) 20.2 (00:00) 28.1 7.22 (17:20) 3.06 (17:20) -- -- -- -- --
02-08-2017 34.8 (17:10) 17.6 (00:00) 26.2 6.67 (17:20) 2.78 (22:40) -- -- -- -- --
01-08-2017 25 (00:00) 18.4 (00:00) 21.7 8.61 (13:30) 2.22 (02:20) -- -- -- -- --
31-07-2017 35.7 (16:40) 21.1 (00:00) 28.4 6.11 (16:00) 2.78 (03:00) -- -- -- -- --
30-07-2017 38.5 (16:50) 22.9 (00:00) 30.7 8.06 (16:40) 2.78 (18:30) -- -- -- -- --
29-07-2017 37.4 (17:00) 22.5 (00:00) 30 7.5 (18:00) 3.06 (01:10) -- -- -- -- --
28-07-2017 37.6 (17:10) 22.6 (00:00) 30.1 6.11 (15:10) 2.78 (04:40) -- -- -- -- --
27-07-2017 36.3 (17:00) 22 (00:00) 29.1 5.83 (17:00) 2.5 (14:20) -- -- -- -- --
26-07-2017 34.6 (17:10) 19.5 (00:00) 27 6.67 (21:00) 3.06 (21:10) -- -- -- -- --
25-07-2017 34.8 (17:30) 19.9 (00:00) 27.3 6.67 (18:50) 3.06 (05:40) -- -- -- -- --
24-07-2017 34.1 (17:10) 19.7 (00:00) 26.9 6.67 (17:00) 2.5 (20:20) -- -- -- -- --
23-07-2017 34.1 (17:00) 19.2 (00:00) 26.6 7.22 (18:00) 2.78 (18:40) -- -- -- -- --

Gráficas

Temp. máximas Temp. mínimas Temp. medias Precipitaciones Rachas de viento máximas Velocidades máximas media en intervalos de 10 minutos

Datos horarios

Fecha y hora oficial Temperatura (ºC) Velocidad del viento (km/h) Dirección del viento Racha (km/h) Dirección de racha Precipitación (mm) Presión (hPa) Tendencia (hPa) Humedad (%)
2017-08-21 23:00:00 27 0 Calma 12 Sudeste -- -- -- 46
2017-08-21 22:00:00 28 6 Sudeste 16 Sudeste -- -- -- 44
2017-08-21 21:00:00 30.5 8 Oeste 23 Oeste -- -- -- 40
2017-08-21 20:00:00 33.1 4 Oeste 15 Sudoeste -- -- -- 32
2017-08-21 19:00:00 33.7 5 Sudoeste 26 Oeste -- -- -- 34
2017-08-21 18:00:00 34.2 3 Oeste 22 Sudoeste -- -- -- 35
2017-08-21 17:00:00 34.6 8 Oeste 21 Oeste -- -- -- 36
2017-08-21 16:00:00 33.5 5 Oeste 15 Oeste -- -- -- 37
2017-08-21 15:00:00 32.1 2 Oeste 15 Sudoeste -- -- -- 43
2017-08-21 14:00:00 29.1 4 Noroeste 14 Oeste -- -- -- 52
2017-08-21 13:00:00 27.2 3 Noroeste 12 Noroeste -- -- -- 60
2017-08-21 12:00:00 23.8 3 Noroeste 10 Noroeste -- -- -- 70
2017-08-21 11:00:00 22 0 Calma 7 Oeste -- -- -- 76
2017-08-21 10:00:00 20.8 3 Oeste 5 Oeste -- -- -- 81
2017-08-21 09:00:00 19.9 0 Calma 5 Sur -- -- -- 83
2017-08-21 08:00:00 19.5 0 Calma -- -- -- -- -- 85
2017-08-21 07:00:00 19.5 0 Calma 6 Sudoeste -- -- -- 84
2017-08-21 06:00:00 20.2 0 Calma 6 Noroeste -- -- -- 81
2017-08-21 05:00:00 21.4 0 Calma 5 Norte -- -- -- 74
2017-08-21 04:00:00 22.3 0 Calma 5 Norte -- -- -- 72
2017-08-21 03:00:00 22.6 0 Calma 8 Nordeste -- -- -- 66
2017-08-21 02:00:00 23.9 3 Norte 7 Norte -- -- -- 61
2017-08-21 01:00:00 25 0 Calma 9 Nordeste -- -- -- 58
2017-08-21 00:00:00 26.3 3 Norte 14 Nordeste -- -- -- 51
2017-08-20 23:00:00 29 5 Sudeste 14 Sudeste -- -- -- 39
2017-08-20 22:00:00 30.1 9 Sudeste 18 Sudeste -- -- -- 39
2017-08-20 21:00:00 31.8 5 Este 10 Sudeste -- -- -- 36
2017-08-20 20:00:00 34.3 4 Noroeste 14 Oeste -- -- -- 32
2017-08-20 19:00:00 35.1 4 Noroeste 15 Nordeste -- -- -- 32
2017-08-20 18:00:00 34.8 5 Sudoeste 19 Noroeste -- -- -- 32
2017-08-20 17:00:00 36.8 0 Calma 20 Noroeste -- -- -- 32
2017-08-20 16:00:00 35.6 4 Noroeste 17 Oeste -- -- -- 36
2017-08-20 15:00:00 33.5 4 Oeste 15 Sudoeste -- -- -- 41
2017-08-20 14:00:00 31.1 4 Oeste 13 Sudoeste -- -- -- 46
2017-08-20 13:00:00 28.3 2 Noroeste 9 Sudoeste -- -- -- 53
2017-08-20 12:00:00 23.9 0 Calma 7 Noroeste -- -- -- 62
2017-08-20 11:00:00 22.4 0 Calma 6 Oeste -- -- -- 67
2017-08-20 10:00:00 20.5 2 Sudoeste 6 Oeste -- -- -- 71
2017-08-20 09:00:00 19.3 0 Calma 3 Oeste -- -- -- 74
2017-08-20 08:00:00 19.3 0 Calma 3 Norte -- -- -- 71
2017-08-20 07:00:00 19.2 0 Calma 3 Sudeste -- -- -- 71
2017-08-20 06:00:00 20.3 0 Calma 4 Norte -- -- -- 69
2017-08-20 05:00:00 21.7 0 Calma 4 Norte -- -- -- 63
2017-08-20 04:00:00 22.9 0 Calma 7 Nordeste -- -- -- 57
2017-08-20 03:00:00 24.1 4 Norte 10 Sudeste -- -- -- 50
2017-08-20 02:00:00 24.7 5 Este 10 Sudeste -- -- -- 45
2017-08-20 01:00:00 26 0 Calma 6 Sudoeste -- -- -- 39
2017-08-20 00:00:00 27.6 0 Calma 13 Sudeste -- -- -- 35
2017-08-19 23:00:00 28.4 10 Sudeste 16 Sudeste -- -- -- 34
2017-08-19 22:00:00 29.5 8 Sudeste 14 Sudeste -- -- -- 33
2017-08-19 21:00:00 31.2 4 Sudeste 16 Oeste -- -- -- 33
2017-08-19 20:00:00 34.2 7 Oeste 20 Oeste -- -- -- 31
2017-08-19 19:00:00 35 7 Oeste 24 Oeste -- -- -- 31
2017-08-19 18:00:00 36.1 9 Oeste 19 Sudoeste -- -- -- 29
2017-08-19 17:00:00 36.6 7 Norte 26 Oeste -- -- -- 29
2017-08-19 16:00:00 36.2 5 Noroeste 21 Oeste -- -- -- 30
2017-08-19 15:00:00 35.5 5 Noroeste 24 Oeste -- -- -- 32
2017-08-19 14:00:00 33.9 3 Oeste 21 Sudoeste -- -- -- 35
2017-08-19 13:00:00 31.2 0 Calma 9 Noroeste -- -- -- 41
2017-08-19 12:00:00 27.7 2 Noroeste 8 Norte -- -- -- 45
2017-08-19 11:00:00 24.6 0 Calma 10 Norte -- -- -- 47
2017-08-19 10:00:00 24.7 0 Calma 6 Sudeste -- -- -- 47
2017-08-19 09:00:00 23.1 3 Este 8 Este -- -- -- 47
2017-08-19 08:00:00 23.4 3 Este 6 Sudeste -- -- -- 46
2017-08-19 07:00:00 23.7 0 Calma 9 Sudeste -- -- -- 43
2017-08-19 06:00:00 24.3 0 Calma 11 Sudeste -- -- -- 42
2017-08-19 05:00:00 25.5 6 Sudeste 15 Sudeste -- -- -- 40
2017-08-19 04:00:00 25.8 8 Sudeste 17 Sudeste -- -- -- 38
2017-08-19 03:00:00 25.8 10 Sudeste 18 Sudeste -- -- -- 37
2017-08-19 02:00:00 26.5 7 Sudeste 15 Sudeste -- -- -- 36
2017-08-19 01:00:00 26.6 5 Sudeste 15 Sudeste -- -- -- 35
2017-08-19 00:00:00 26.8 8 Sudeste 17 Sudeste -- -- -- 35
2017-08-18 23:00:00 27.5 8 Sudeste 16 Sudeste -- -- -- 34
2017-08-18 22:00:00 28.2 7 Sudeste 12 Sudeste -- -- -- 35
2017-08-18 21:00:00 31.1 0 Calma 12 Noroeste -- -- -- 33
2017-08-18 20:00:00 33.6 5 Noroeste 17 Oeste -- -- -- 30
2017-08-18 19:00:00 34.4 6 Oeste 16 Oeste -- -- -- 28
2017-08-18 18:00:00 35.6 6 Oeste 16 Oeste -- -- -- 30
2017-08-18 17:00:00 36.4 9 Oeste 21 Sudoeste -- -- -- 30
2017-08-18 16:00:00 35.2 5 Noroeste 19 Oeste -- -- -- 31
2017-08-18 15:00:00 33.4 5 Noroeste 19 Noroeste -- -- -- 34
2017-08-18 14:00:00 31.9 4 Noroeste 16 Oeste -- -- -- 38
2017-08-18 13:00:00 29.5 3 Oeste 10 Sudoeste -- -- -- 44
2017-08-18 12:00:00 25.5 0 Calma 9 Noroeste -- -- -- 50
2017-08-18 11:00:00 23.4 2 Noroeste 6 Noroeste -- -- -- 54
2017-08-18 10:00:00 22.4 0 Calma 6 Oeste -- -- -- 53
2017-08-18 09:00:00 21.2 0 Calma 7 Norte -- -- -- 54
2017-08-18 08:00:00 21.1 0 Calma 5 Este -- -- -- 52
2017-08-18 07:00:00 21.8 3 Este 10 Nordeste -- -- -- 50
2017-08-18 06:00:00 22.7 0 Calma 6 Nordeste -- -- -- 48
2017-08-18 05:00:00 23.3 0 Calma 15 Sudeste -- -- -- 45
2017-08-18 04:00:00 25.3 7 Sudeste 17 Sudeste -- -- -- 41
2017-08-18 03:00:00 24.3 4 Sudeste 12 Este -- -- -- 41
2017-08-18 02:00:00 24.5 3 Norte 10 Norte -- -- -- 42
2017-08-18 01:00:00 26.3 3 Nordeste 16 Este -- -- -- 36
2017-08-18 00:00:00 27.2 8 Sudeste 15 Sudeste -- -- -- 37
2017-08-17 23:00:00 27.5 9 Sudeste 20 Sudeste -- -- -- 38
2017-08-17 22:00:00 28 9 Sudeste 15 Sudeste -- -- -- 33
2017-08-17 21:00:00 30.2 5 Sudeste 19 Sudoeste -- -- -- 30
2017-08-17 20:00:00 33.4 8 Oeste 18 Oeste -- -- -- 29
2017-08-17 19:00:00 34.1 6 Oeste 20 Oeste -- -- -- 28
2017-08-17 18:00:00 35.1 4 Oeste 22 Oeste -- -- -- 29
2017-08-17 17:00:00 36.4 4 Noroeste 16 Norte -- -- -- 30
2017-08-17 16:00:00 34.9 4 Noroeste 19 Oeste -- -- -- 31
2017-08-17 15:00:00 34.1 5 Oeste 18 Noroeste -- -- -- 32
2017-08-17 14:00:00 32.8 3 Noroeste 12 Noroeste -- -- -- 31
2017-08-17 13:00:00 30.1 2 Noroeste 10 Noroeste -- -- -- 32
2017-08-17 12:00:00 27 0 Calma 7 Noroeste -- -- -- 35
2017-08-17 11:00:00 25.1 0 Calma 4 Noroeste -- -- -- 37
2017-08-17 10:00:00 23.5 0 Calma 4 Sudeste -- -- -- 38
2017-08-17 09:00:00 22.3 0 Calma 8 Sudeste -- -- -- 37
2017-08-17 08:00:00 22.7 2 Sudeste 10 Sudeste -- -- -- 34
2017-08-17 07:00:00 23.6 5 Sudeste 13 Sudeste -- -- -- 33
2017-08-17 06:00:00 23.6 5 Sudeste 10 Sudeste -- -- -- 33
2017-08-17 05:00:00 24 5 Sudeste 12 Sudeste -- -- -- 33
2017-08-17 04:00:00 24 6 Sudeste 12 Sudeste -- -- -- 32
2017-08-17 03:00:00 24.7 6 Sudeste 16 Sudeste -- -- -- 31
2017-08-17 02:00:00 24.9 9 Sudeste 18 Sudeste -- -- -- 31
2017-08-17 01:00:00 24.8 6 Sudeste 16 Sudeste -- -- -- 31
2017-08-17 00:00:00 25.5 8 Sudeste 16 Sudeste -- -- -- 31
2017-08-16 23:00:00 26.7 8 Sudeste 17 Sudeste -- -- -- 31
2017-08-16 22:00:00 27.2 8 Sudeste 14 Sudeste -- -- -- 30
2017-08-16 21:00:00 29.9 2 Oeste 14 Oeste -- -- -- 29
2017-08-16 20:00:00 31.9 7 Oeste 21 Oeste -- -- -- 28
2017-08-16 19:00:00 33.3 8 Oeste 22 Oeste -- -- -- 28
2017-08-16 18:00:00 33.4 8 Oeste 22 Oeste -- -- -- 29
2017-08-16 17:00:00 35.2 6 Oeste 26 Oeste -- -- -- 30
2017-08-16 16:00:00 33.7 9 Oeste 20 Oeste -- -- -- 31
2017-08-16 15:00:00 32.6 4 Noroeste 13 Noroeste -- -- -- 32
2017-08-16 14:00:00 31.2 5 Oeste 13 Noroeste -- -- -- 35
2017-08-16 13:00:00 29.1 3 Noroeste 10 Oeste -- -- -- 41
2017-08-16 12:00:00 25.7 0 Calma 8 Oeste -- -- -- 45
2017-08-16 11:00:00 24.2 0 Calma 6 Norte -- -- -- 46
2017-08-16 10:00:00 22.8 0 Calma 5 Este -- -- -- 47
2017-08-16 09:00:00 21.5 0 Calma 5 Este -- -- -- 50
2017-08-16 08:00:00 21.5 3 Este 9 Sudeste -- -- -- 50
2017-08-16 07:00:00 21.8 3 Este 10 Sudeste -- -- -- 50
2017-08-16 06:00:00 22.1 2 Sudeste 12 Sudeste -- -- -- 51
2017-08-16 05:00:00 22.4 6 Sudeste 12 Sudeste -- -- -- 52
2017-08-16 04:00:00 23.3 2 Este 10 Sudeste -- -- -- 50
2017-08-16 03:00:00 24.2 5 Sudeste 12 Sudeste -- -- -- 48
2017-08-16 02:00:00 24.3 7 Sudeste 14 Sudeste -- -- -- 47
2017-08-16 01:00:00 24.6 6 Sudeste 14 Sudeste -- -- -- 47
2017-08-16 00:00:00 25.7 3 Sudeste 11 Sur -- -- -- 46
2017-08-15 23:00:00 26.2 5 Sudeste 13 Sudeste -- -- -- 45
2017-08-15 22:00:00 26.4 3 Sudeste 10 Sudoeste -- -- -- 44
2017-08-15 21:00:00 29.2 3 Sudoeste 17 Oeste -- -- -- 41
2017-08-15 20:00:00 30.8 4 Oeste 20 Sudoeste -- -- -- 40
2017-08-15 19:00:00 32.6 10 Oeste 23 Oeste -- -- -- 39
2017-08-15 18:00:00 33.5 5 Oeste 21 Noroeste -- -- -- 38
2017-08-15 17:00:00 34.3 4 Oeste 17 Oeste -- -- -- 36
2017-08-15 16:00:00 34.2 3 Noroeste 14 Oeste -- -- -- 37
2017-08-15 15:00:00 32.3 3 Noroeste 15 Oeste -- -- -- 40
2017-08-15 14:00:00 30.3 2 Oeste 12 Oeste -- -- -- 45
2017-08-15 13:00:00 27.8 3 Oeste 11 Oeste -- -- -- 53
2017-08-15 12:00:00 24.8 3 Norte 9 Oeste -- -- -- 61
2017-08-15 11:00:00 22.2 2 Sur 8 Oeste -- -- -- 66
2017-08-15 10:00:00 20.6 0 Calma 6 Sudeste -- -- -- 69
2017-08-15 09:00:00 19.6 0 Calma 5 Sudeste -- -- -- 72
2017-08-15 08:00:00 19.5 0 Calma 5 Oeste -- -- -- 68
2017-08-15 07:00:00 20 0 Calma 4 Norte -- -- -- 63
2017-08-15 06:00:00 21.1 0 Calma 14 Sudeste -- -- -- 61
2017-08-15 05:00:00 20.6 4 Sudeste 13 Noroeste -- -- -- 60
2017-08-15 04:00:00 23.1 0 Calma 6 Sudeste -- -- -- 53
2017-08-15 03:00:00 23.3 3 Sudeste 6 Sudeste -- -- -- 53
2017-08-15 02:00:00 23.1 0 Calma 8 Este -- -- -- 52
2017-08-15 01:00:00 23.7 2 Este 11 Norte -- -- -- 50
2017-08-15 00:00:00 24 2 Nordeste 8 Este -- -- -- 49
2017-08-14 23:00:00 25.1 2 Norte 8 Nordeste -- -- -- 47
2017-08-14 22:00:00 26.8 3 Norte 23 Sudeste -- -- -- 41
2017-08-14 21:00:00 29.6 12 Sudeste 31 Sudeste -- -- -- 39
2017-08-14 20:00:00 31.4 14 Sudeste 31 Sudeste -- -- -- 37
2017-08-14 19:00:00 33 13 Sudeste 27 Sur -- -- -- 33
2017-08-14 18:00:00 33.7 7 Sur 18 Sur -- -- -- 32
2017-08-14 17:00:00 35.1 3 Oeste 18 Oeste -- -- -- 31
2017-08-14 16:00:00 34.4 4 Norte 13 Oeste -- -- -- 33
2017-08-14 15:00:00 31.5 0 Calma 11 Norte -- -- -- 37
2017-08-14 14:00:00 28.7 0 Calma 13 Norte -- -- -- 43
2017-08-14 13:00:00 26.2 5 Oeste 12 Oeste -- -- -- 49
2017-08-14 12:00:00 22.8 4 Oeste 10 Oeste -- -- -- 57
2017-08-14 11:00:00 21 0 Calma 8 Norte -- -- -- 65
2017-08-14 10:00:00 19.7 0 Calma 8 Sur -- -- -- 69
2017-08-14 09:00:00 18.6 0 Calma 5 Norte -- -- -- 70
2017-08-14 08:00:00 18.3 0 Calma 6 Sudeste -- -- -- 69
2017-08-14 07:00:00 18 0 Calma 7 Sudeste -- -- -- 69
2017-08-14 06:00:00 18.3 0 Calma 5 Noroeste -- -- -- 67
2017-08-14 05:00:00 19.6 0 Calma 6 Sur -- -- -- 64
2017-08-14 04:00:00 20 0 Calma 7 Sur -- -- -- 61
2017-08-14 03:00:00 19.9 2 Sudeste 7 Sudeste -- -- -- 61
2017-08-14 02:00:00 20.7 2 Sudeste 9 Sudeste -- -- -- 56
2017-08-14 01:00:00 21.6 0 Calma 9 Norte -- -- -- 48
2017-08-14 00:00:00 22.9 5 Norte 7 Norte -- -- -- 42
2017-08-13 23:00:00 24.4 0 Calma 24 Sudeste -- -- -- 38
2017-08-13 22:00:00 25.2 11 Sudeste 35 Sudeste -- -- -- 37
2017-08-13 21:00:00 26.7 18 Sudeste 35 Sudeste -- -- -- 37
2017-08-13 20:00:00 30 15 Sudeste 36 Sudeste -- -- -- 35
2017-08-13 19:00:00 31.6 16 Sudeste 32 Sur -- -- -- 33
2017-08-13 18:00:00 32.2 4 Oeste 21 Oeste -- -- -- 31
2017-08-13 17:00:00 33.3 5 Noroeste 18 Oeste -- -- -- 32
2017-08-13 16:00:00 32.6 4 Noroeste 18 Noroeste -- -- -- 34
2017-08-13 15:00:00 31 3 Oeste 16 Oeste -- -- -- 39
2017-08-13 14:00:00 28.9 3 Norte 12 Oeste -- -- -- 45
2017-08-13 13:00:00 25 4 Oeste 14 Oeste -- -- -- 51
2017-08-13 12:00:00 22 3 Oeste 10 Oeste -- -- -- 58
2017-08-13 11:00:00 19.8 3 Noroeste 7 Noroeste -- -- -- 63
2017-08-13 10:00:00 18.6 2 Oeste 5 Oeste -- -- -- 66
2017-08-13 09:00:00 16.6 0 Calma 3 Este -- -- -- 70
2017-08-13 08:00:00 16.7 0 Calma 5 Oeste -- -- -- 67
2017-08-13 07:00:00 17.4 0 Calma 5 Sudeste -- -- -- 66
2017-08-13 06:00:00 17.2 2 Sudeste 5 Sudeste -- -- -- 66
2017-08-13 05:00:00 17.5 0 Calma 4 Sur -- -- -- 63
2017-08-13 04:00:00 18.3 0 Calma 5 Norte -- -- -- 61
2017-08-13 03:00:00 20 0 Calma 5 Oeste -- -- -- 57
2017-08-13 02:00:00 20.6 4 Sudeste 12 Este -- -- -- 54
2017-08-13 01:00:00 19.9 0 Calma 10 Oeste -- -- -- 55
2017-08-13 00:00:00 21.3 0 Calma 5 Oeste -- -- -- 46
2017-08-12 23:00:00 22.4 4 Nordeste 18 Sudeste -- -- -- 41
2017-08-12 22:00:00 23.3 10 Sudeste 24 Sudeste -- -- -- 40
2017-08-12 21:00:00 26.9 11 Sudeste 24 Sudeste -- -- -- 40
2017-08-12 20:00:00 30 4 Oeste 16 Oeste -- -- -- 28
2017-08-12 19:00:00 30.7 5 Noroeste 17 Oeste -- -- -- 29
2017-08-12 18:00:00 31.2 9 Oeste 21 Oeste -- -- -- 30
2017-08-12 17:00:00 31.9 4 Oeste 22 Oeste -- -- -- 31
2017-08-12 16:00:00 30.8 6 Oeste 17 Sudoeste -- -- -- 34
2017-08-12 15:00:00 29.2 3 Noroeste 13 Oeste -- -- -- 40
2017-08-12 14:00:00 27 3 Noroeste 14 Oeste -- -- -- 45
2017-08-12 13:00:00 24.5 2 Noroeste 11 Noroeste -- -- -- 50
2017-08-12 12:00:00 21.1 3 Noroeste 9 Sudoeste -- -- -- 61
2017-08-12 11:00:00 19.2 2 Oeste 8 Oeste -- -- -- 69
2017-08-12 10:00:00 17.6 2 Noroeste 7 Norte -- -- -- 74
2017-08-12 09:00:00 16.4 3 Sur 7 Sudeste -- -- -- 78
2017-08-12 08:00:00 16.5 0 Calma 4 Sur -- -- -- 76
2017-08-12 07:00:00 17 0 Calma 3 Este -- -- -- 74
2017-08-12 06:00:00 17.5 0 Calma 5 Sudeste -- -- -- 68
2017-08-12 05:00:00 18.5 0 Calma 8 Norte -- -- -- 66
2017-08-12 04:00:00 19.2 0 Calma 5 Norte -- -- -- 47
2017-08-12 03:00:00 20.1 3 Este 7 Este -- -- -- 46
2017-08-12 02:00:00 20.4 2 Este 11 Nordeste -- -- -- 42
2017-08-12 01:00:00 21 4 Nordeste 13 Oeste -- -- -- 38
2017-08-12 00:00:00 22 4 Oeste 12 Oeste -- -- -- 37
2017-08-11 23:00:00 22.6 5 Sudeste 13 Sudeste -- -- -- 32
2017-08-11 22:00:00 23.5 4 Sudeste 9 Sudeste -- -- -- 30
2017-08-11 21:00:00 27.7 0 Calma 12 Noroeste -- -- -- 29
2017-08-11 20:00:00 29.1 3 Oeste 15 Oeste -- -- -- 28
2017-08-11 19:00:00 30.2 3 Noroeste 16 Noroeste -- -- -- 30
2017-08-11 18:00:00 30 6 Oeste 18 Noroeste -- -- -- 32
2017-08-11 17:00:00 30.8 4 Noroeste 15 Oeste -- -- -- 34
2017-08-11 16:00:00 29 0 Calma 18 Oeste -- -- -- 37
2017-08-11 15:00:00 28.5 2 Norte 19 Oeste -- -- -- 39
2017-08-11 14:00:00 27.2 2 Oeste 17 Oeste -- -- -- 41
2017-08-11 13:00:00 24.1 4 Noroeste 14 Noroeste -- -- -- 49
2017-08-11 12:00:00 21.7 2 Oeste 10 Oeste -- -- -- 60
2017-08-11 11:00:00 19.7 0 Calma 7 Oeste -- -- -- 68
2017-08-11 10:00:00 17.9 3 Oeste 7 Sudeste -- -- -- 77
2017-08-11 09:00:00 16.3 4 Sudeste 8 Sudeste -- -- -- 82
2017-08-11 08:00:00 16.1 0 Calma 3 Sudeste -- -- -- 80
2017-08-11 07:00:00 16.2 0 Calma 5 Norte -- -- -- 81
2017-08-11 06:00:00 16.6 0 Calma 6 Oeste -- -- -- 76
2017-08-11 05:00:00 17.1 0 Calma 5 Noroeste -- -- -- 59
2017-08-11 04:00:00 18.1 0 Calma 9 Sudeste -- -- -- 51
2017-08-11 03:00:00 18.6 0 Calma 10 Sudeste -- -- -- 49
2017-08-11 02:00:00 18.8 0 Calma 6 Sur -- -- -- 47
2017-08-11 01:00:00 19.5 0 Calma 10 Sudoeste -- -- -- 46
2017-08-11 00:00:00 20.6 3 Sur 17 Sur -- -- -- 43
2017-08-10 23:00:00 21.1 5 Sudeste 12 Sudeste -- -- -- 40
2017-08-10 22:00:00 23.2 0 Calma 16 Oeste -- -- -- 38
2017-08-10 21:00:00 26.1 4 Noroeste 18 Oeste -- -- -- 37
2017-08-10 20:00:00 27.6 7 Oeste 15 Oeste -- -- -- 37
2017-08-10 19:00:00 28.9 8 Oeste 19 Oeste -- -- -- 35
2017-08-10 18:00:00 28.7 8 Oeste 18 Oeste -- -- -- 34
2017-08-10 17:00:00 29.2 8 Oeste 22 Oeste -- -- -- 37
2017-08-10 16:00:00 28.4 0 Calma 18 Oeste -- -- -- 40
2017-08-10 15:00:00 26.4 4 Noroeste 14 Noroeste -- -- -- 45
2017-08-10 14:00:00 25.9 2 Noroeste 13 Oeste -- -- -- 47
2017-08-10 13:00:00 22.5 3 Noroeste 14 Oeste -- -- -- 50
2017-08-10 12:00:00 19.3 2 Noroeste 9 Oeste -- -- -- 58
2017-08-10 11:00:00 18.2 2 Norte 6 Norte -- -- -- 61
2017-08-10 10:00:00 16.8 0 Calma 4 Noroeste -- -- -- 59
2017-08-10 09:00:00 15.5 2 Sur 5 Sur -- -- -- 58
2017-08-10 08:00:00 15.5 0 Calma 6 Norte -- -- -- 54
2017-08-10 07:00:00 15.5 0 Calma 8 Norte -- -- -- 53
2017-08-10 06:00:00 16.3 6 Norte 12 Nordeste -- -- -- 50
2017-08-10 05:00:00 17.5 2 Noroeste 10 Noroeste -- -- -- 46
2017-08-10 04:00:00 18.7 3 Sudoeste 15 Sudeste -- -- -- 45
2017-08-10 03:00:00 19.4 6 Sur 15 Sur -- -- -- 43
2017-08-10 02:00:00 20 3 Sur 14 Sudeste -- -- -- 40
2017-08-10 01:00:00 20.9 6 Sudeste 15 Sudeste -- -- -- 34
2017-08-10 00:00:00 21.2 5 Sudeste 14 Sudeste -- -- -- 34
2017-08-09 23:00:00 22.8 6 Sudeste 13 Sudeste -- -- -- 32
2017-08-09 22:00:00 23.6 8 Sudeste 13 Sudeste -- -- -- 32
2017-08-09 21:00:00 26.1 0 Calma 17 Oeste -- -- -- 30
2017-08-09 20:00:00 27.4 10 Oeste 22 Oeste -- -- -- 29
2017-08-09 19:00:00 28.1 7 Noroeste 22 Noroeste -- -- -- 29
2017-08-09 18:00:00 28.9 9 Oeste 22 Sudoeste -- -- -- 29
2017-08-09 17:00:00 29.3 6 Noroeste 22 Oeste -- -- -- 29
2017-08-09 16:00:00 29 8 Oeste 20 Oeste -- -- -- 29
2017-08-09 15:00:00 28.6 4 Noroeste 21 Oeste -- -- -- 31
2017-08-09 14:00:00 26.6 4 Noroeste 20 Oeste -- -- -- 34
2017-08-09 13:00:00 24.6 3 Noroeste 11 Norte -- -- -- 40
2017-08-09 12:00:00 20.9 4 Oeste 10 Oeste -- -- -- 48
2017-08-09 11:00:00 19.8 5 Noroeste 11 Noroeste -- -- -- 51
2017-08-09 10:00:00 19 2 Norte 10 Norte -- -- -- 42
2017-08-09 09:00:00 17.2 0 Calma 5 Sudeste -- -- -- 38
2017-08-09 08:00:00 18.1 3 Sur 14 Sudeste -- -- -- 34
2017-08-09 07:00:00 19.2 5 Sudeste 14 Sudeste -- -- -- 32
2017-08-09 06:00:00 19.5 4 Sudeste 8 Sudeste -- -- -- 33
2017-08-09 05:00:00 20.3 0 Calma 7 Este -- -- -- 31
2017-08-09 04:00:00 20.9 5 Sudeste 12 Sudeste -- -- -- 30
2017-08-09 03:00:00 21 4 Sudeste 13 Sudeste -- -- -- 30
2017-08-09 02:00:00 21.9 0 Calma 15 Sudeste -- -- -- 29
2017-08-09 01:00:00 22.8 6 Sudeste 14 Sudeste -- -- -- 29
2017-08-09 00:00:00 23.5 9 Sudeste 17 Sudeste -- -- -- 29
2017-08-08 23:00:00 24.3 10 Sudeste 16 Sudeste -- -- -- 28
2017-08-08 22:00:00 24.6 6 Sudeste 13 Sudeste -- -- -- 27
2017-08-08 21:00:00 28 3 Oeste 16 Sudoeste -- -- -- 26
2017-08-08 20:00:00 29.2 8 Oeste 25 Oeste -- -- -- 24
2017-08-08 19:00:00 30.7 8 Oeste 25 Oeste -- -- -- 23
2017-08-08 18:00:00 31 7 Sudoeste 29 Oeste -- -- -- 22
2017-08-08 17:00:00 32.2 10 Oeste 26 Oeste -- -- -- 22
2017-08-08 16:00:00 30.1 9 Oeste 30 Oeste -- -- -- 22
2017-08-08 15:00:00 29.9 6 Oeste 31 Oeste -- -- -- 24
2017-08-08 14:00:00 28.5 7 Oeste 22 Oeste -- -- -- 28
2017-08-08 13:00:00 26.5 6 Oeste 17 Oeste -- -- -- 31
2017-08-08 12:00:00 24.5 6 Oeste 15 Oeste -- -- -- 32
2017-08-08 11:00:00 23.1 3 Oeste 10 Oeste -- -- -- 34
2017-08-08 10:00:00 21.4 0 Calma 6 Sudoeste -- -- -- 38
2017-08-08 09:00:00 20.7 3 Oeste 10 Sudoeste -- -- -- 38
2017-08-08 08:00:00 21.2 3 Sudoeste 14 Sudeste -- -- -- 38
2017-08-08 07:00:00 21.9 8 Sudeste 14 Sudeste -- -- -- 38
2017-08-08 06:00:00 23 0 Calma 7 Sudoeste -- -- -- 37
2017-08-08 05:00:00 24.1 0 Calma 9 Sudeste -- -- -- 36
2017-08-08 04:00:00 24.9 4 Sudeste 11 Sudeste -- -- -- 34
2017-08-08 03:00:00 25.4 5 Sudeste 10 Sudeste -- -- -- 35
2017-08-08 02:00:00 26.5 0 Calma 10 Norte -- -- -- 35
2017-08-08 01:00:00 26.3 3 Este 10 Sudeste -- -- -- 36
2017-08-08 00:00:00 27.5 4 Sudeste 10 Sudeste -- -- -- 34
2017-08-07 23:00:00 28.9 3 Sur 22 Oeste -- -- -- 32
2017-08-07 22:00:00 30.8 7 Sudeste 18 Sudeste -- -- -- 30
2017-08-07 21:00:00 32.8 8 Oeste 21 Sudoeste -- -- -- 29
2017-08-07 20:00:00 34.7 7 Oeste 28 Oeste -- -- -- 28
2017-08-07 19:00:00 35.4 5 Sudoeste 26 Sudoeste -- -- -- 28
2017-08-07 18:00:00 36.2 6 Oeste 24 Noroeste -- -- -- 28
2017-08-07 17:00:00 35.9 5 Noroeste 17 Oeste -- -- -- 27
2017-08-07 16:00:00 36.6 7 Oeste 22 Noroeste -- -- -- 28
2017-08-07 15:00:00 36.1 4 Oeste 18 Noroeste -- -- -- 28
2017-08-07 14:00:00 33.9 4 Oeste 16 Oeste -- -- -- 30
2017-08-07 13:00:00 31.8 0 Calma 10 Oeste -- -- -- 35
2017-08-07 12:00:00 28.2 4 Noroeste 9 Noroeste -- -- -- 41
2017-08-07 11:00:00 26.5 3 Noroeste 10 Norte -- -- -- 42
2017-08-07 10:00:00 24.7 2 Sudeste 11 Sudeste -- -- -- 42
2017-08-07 09:00:00 22.5 0 Calma 12 Oeste -- -- -- 44
2017-08-07 08:00:00 26.3 3 Norte 18 Sudeste -- -- -- 34
2017-08-07 07:00:00 24.1 4 Este 10 Sudeste -- -- -- 38
2017-08-07 06:00:00 24.2 2 Este 8 Nordeste -- -- -- 41
2017-08-07 05:00:00 23.7 0 Calma 9 Sudeste -- -- -- 41
2017-08-07 04:00:00 24.8 3 Sudeste 14 Sudeste -- -- -- 38
2017-08-07 03:00:00 25.6 5 Sudeste 10 Sudeste -- -- -- 34
2017-08-07 02:00:00 26.4 6 Nordeste -- -- -- -- -- 32
2017-08-07 01:00:00 -- -- -- -- -- -- -- -- --
2017-08-07 00:00:00 -- -- -- -- -- -- -- -- --
2017-08-06 23:00:00 -- -- -- -- -- -- -- -- --
2017-08-06 22:00:00 -- -- -- -- -- -- -- -- --
2017-08-06 21:00:00 -- -- -- -- -- -- -- -- --
2017-08-06 20:00:00 -- -- -- -- -- -- -- -- --
2017-08-06 19:00:00 -- -- -- -- -- -- -- -- --
2017-08-06 18:00:00 -- -- -- -- -- -- -- -- --
2017-08-06 17:00:00 -- -- -- -- -- -- -- -- --
2017-08-06 16:00:00 -- -- -- -- -- -- -- -- --
2017-08-06 15:00:00 -- -- -- -- -- -- -- -- --
2017-08-06 14:00:00 -- -- -- -- -- -- -- -- --
2017-08-06 13:00:00 -- -- -- -- -- -- -- -- --
2017-08-06 12:00:00 -- -- -- -- -- -- -- -- --
2017-08-06 11:00:00 -- -- -- -- -- -- -- -- --
2017-08-06 10:00:00 -- -- -- -- -- -- -- -- --
2017-08-06 09:00:00 -- -- -- -- -- -- -- -- --
2017-08-06 08:00:00 -- -- -- -- -- -- -- -- --
2017-08-06 07:00:00 24.3 4 Sudoeste 10 Sudeste -- -- -- 40
2017-08-06 06:00:00 24.6 4 Este 11 Sudeste -- -- -- 39
2017-08-06 05:00:00 25.3 4 Sudeste 9 Nordeste -- -- -- 39
2017-08-06 04:00:00 26.4 2 Este 11 Sudeste -- -- -- 38
2017-08-06 03:00:00 27.4 5 Este 15 Sudeste -- -- -- 36
2017-08-06 02:00:00 27.9 5 Sudeste 11 Sudeste -- -- -- 35
2017-08-06 01:00:00 29.2 2 Sudeste 19 Oeste -- -- -- 33
2017-08-06 00:00:00 29.2 4 Sudeste 14 Sudeste -- -- -- 31
2017-08-05 23:00:00 29.9 6 Sudeste 15 Sudeste -- -- -- 31
2017-08-05 22:00:00 31.6 8 Sudeste 13 Sudeste -- -- -- 29
2017-08-05 21:00:00 34.2 2 Oeste 21 Oeste -- -- -- 27
2017-08-05 20:00:00 35.2 9 Oeste 27 Oeste -- -- -- 27
2017-08-05 19:00:00 36.5 11 Oeste 27 Oeste -- -- -- 28
2017-08-05 18:00:00 36.8 10 Oeste 23 Oeste -- -- -- 30
2017-08-05 17:00:00 37.1 12 Oeste 28 Oeste -- -- -- 29
2017-08-05 16:00:00 37.5 6 Oeste 20 Oeste -- -- -- 29
2017-08-05 15:00:00 36.6 5 Oeste 24 Noroeste -- -- -- 32
2017-08-05 14:00:00 35.6 7 Oeste 22 Sudoeste -- -- -- 32
2017-08-05 13:00:00 33.8 5 Oeste 14 Noroeste -- -- -- 35
2017-08-05 12:00:00 30.1 3 Oeste 9 Noroeste -- -- -- 37
2017-08-05 11:00:00 28 0 Calma 5 Noroeste -- -- -- 39
2017-08-05 10:00:00 26.6 0 Calma 4 Este -- -- -- 39
2017-08-05 09:00:00 24.9 3 Este 8 Sudeste -- -- -- 40
2017-08-05 08:00:00 25.4 4 Este 10 Sudeste -- -- -- 38
2017-08-05 07:00:00 25.6 3 Este 8 Sudeste -- -- -- 38
2017-08-05 06:00:00 26.3 5 Este 12 Sudeste -- -- -- 37
2017-08-05 05:00:00 25.5 0 Calma 6 Este -- -- -- 35
2017-08-05 04:00:00 26.8 5 Norte 17 Sudeste -- -- -- 33
2017-08-05 03:00:00 28.3 6 Este 16 Sudeste -- -- -- 32
2017-08-05 02:00:00 26.7 0 Calma 21 Sudeste -- -- -- 32
2017-08-05 01:00:00 27.4 6 Sudeste 17 Sudeste -- -- -- 30
2017-08-05 00:00:00 28.9 9 Sudeste 17 Sudeste -- -- -- 30
2017-08-04 23:00:00 30.1 8 Sudeste 18 Sudeste -- -- -- 32
2017-08-04 22:00:00 31.1 11 Sudeste 17 Este -- -- -- 27
2017-08-04 21:00:00 34.3 2 Sudoeste 16 Oeste -- -- -- 26
2017-08-04 20:00:00 35.9 5 Oeste 18 Oeste -- -- -- 25
2017-08-04 19:00:00 36.4 5 Noroeste 22 Oeste -- -- -- 26
2017-08-04 18:00:00 37.4 5 Oeste 18 Oeste -- -- -- 26
2017-08-04 17:00:00 37.7 4 Sudoeste 21 Oeste -- -- -- 27
2017-08-04 16:00:00 36.9 2 Norte 17 Noroeste -- -- -- 27
2017-08-04 15:00:00 35 4 Noroeste 14 Oeste -- -- -- 28
2017-08-04 14:00:00 34 4 Noroeste 15 Oeste -- -- -- 28
2017-08-04 13:00:00 31.6 3 Noroeste 10 Oeste -- -- -- 31
2017-08-04 12:00:00 27.4 0 Calma 6 Noroeste -- -- -- 34
2017-08-04 11:00:00 25.8 0 Calma 6 Noroeste -- 928.9 0.3 35
2017-08-04 10:00:00 24.3 0 Calma 3 Noroeste -- 928.7 0.1 35
2017-08-04 09:00:00 22.9 0 Calma 7 Sudeste -- 928.6 0.3 36
2017-08-04 08:00:00 23.3 4 Sudeste 10 Sudeste -- 928.6 0.4 34
2017-08-04 07:00:00 23 4 Este 8 Este -- 928.6 0.4 33
2017-08-04 06:00:00 23.2 0 Calma 9 Este -- 928.3 0 33
2017-08-04 05:00:00 24.3 5 Este 13 Sudeste -- 928.2 0.1 32
2017-08-04 04:00:00 24.8 7 Este 15 Sudeste -- 928.2 -0.2 32
2017-08-04 03:00:00 25 4 Este 10 Sudeste -- 928.3 0 31
2017-08-04 02:00:00 26.4 5 Este 14 Sudeste -- 928.1 0 30
2017-08-04 01:00:00 27 9 Sudeste 16 Sudeste -- 928.4 0.8 29
2017-08-04 00:00:00 26.8 9 Sudeste 17 Sudeste -- 928.3 1.1 29
2017-08-03 23:00:00 27.2 10 Sudeste 17 Sudeste -- 928.1 0.9 27
2017-08-03 22:00:00 28.5 8 Sudeste 17 Sudeste -- 927.6 0.4 26
2017-08-03 21:00:00 33 2 Sudoeste 11 Sudoeste -- 927.2 -0.2 25
2017-08-03 20:00:00 34 4 Oeste 17 Oeste -- 927.2 -0.4 26
2017-08-03 19:00:00 34.5 7 Oeste 19 Oeste -- 927.2 -0.5 26
2017-08-03 18:00:00 35.5 7 Oeste 26 Oeste -- 927.4 -0.5 26
2017-08-03 17:00:00 34.8 3 Sudoeste 16 Oeste -- 927.6 -1.1 27
2017-08-03 16:00:00 33.9 6 Oeste 16 Noroeste -- 927.7 -1.8 29
2017-08-03 15:00:00 33.3 3 Norte 14 Oeste -- 927.9 -1.7 32
2017-08-03 14:00:00 31.3 4 Noroeste 12 Norte -- 928.7 -1.7 33
2017-08-03 13:00:00 29.3 3 Oeste 10 Noroeste -- 929.5 -1 36
2017-08-03 12:00:00 25.4 2 Noroeste 10 Sudoeste -- 929.6 -0.7 40
2017-08-03 11:00:00 23.5 0 Calma 4 Sudeste -- 930.4 0.2 42
2017-08-03 10:00:00 21.9 0 Calma 4 Sudeste -- 930.5 0.3 43
2017-08-03 09:00:00 20.4 0 Calma 10 Sudeste -- 930.3 0.5 43
2017-08-03 08:00:00 20.7 2 Este 10 Sudeste -- 930.2 0.7 42
2017-08-03 07:00:00 21.3 2 Sudeste 7 Sudeste -- 930.2 0.7 40
2017-08-03 06:00:00 22.7 5 Sudeste 23 Sudeste -- 929.8 0.4 38
2017-08-03 05:00:00 22.7 5 Este 14 Sudeste -- 929.5 -0.5 38
2017-08-03 04:00:00 23 4 Sudeste 16 Sudeste -- 929.5 -0.3 37
2017-08-03 03:00:00 23.4 10 Sudeste 18 Sudeste -- 929.4 0 34
2017-08-03 02:00:00 23.6 7 Sudeste 15 Sudeste -- 930 0.9 32
2017-08-03 01:00:00 24.3 6 Sudeste 17 Sudeste -- 929.8 1.4 32
2017-08-03 00:00:00 24.9 6 Sudeste 18 Sudeste -- 929.4 2 32
2017-08-02 23:00:00 26.2 8 Sudeste 15 Sudeste -- 929.1 2.4 33
2017-08-02 22:00:00 27.6 5 Sudeste 13 Sudeste -- 928.4 1.5 34
2017-08-02 21:00:00 30.6 4 Oeste 15 Oeste -- 927.4 0.9 33
2017-08-02 20:00:00 32.6 7 Oeste 20 Noroeste -- 926.7 -0.2 33
2017-08-02 19:00:00 32.8 6 Oeste 19 Noroeste -- 926.9 -0.5 32
2017-08-02 18:00:00 33.9 4 Oeste 24 Oeste -- 926.5 -1 32
2017-08-02 17:00:00 34 3 Noroeste 16 Oeste -- 926.9 -1.1 33
2017-08-02 16:00:00 33.7 3 Sudoeste 15 Noroeste -- 927.4 -1.1 35
2017-08-02 15:00:00 31.6 4 Norte 13 Noroeste -- 927.5 -0.7 37
2017-08-02 14:00:00 28.8 5 Noroeste 15 Noroeste -- 928 -0.9 40
2017-08-02 13:00:00 27.1 0 Calma 14 Noroeste -- 928.5 -0.7 42
2017-08-02 12:00:00 22.4 2 Noroeste 9 Norte -- 928.2 -1 45
2017-08-02 11:00:00 20.5 0 Calma 8 Oeste -- 928.9 0.1 47
2017-08-02 10:00:00 19.2 0 Calma 5 Norte -- 929.2 0.4 48
2017-08-02 09:00:00 18.9 0 Calma -- -- -- 929.2 0.4 50
2017-08-02 08:00:00 18.6 0 Calma 7 Sudeste -- 928.8 -0.6 47
2017-08-02 07:00:00 18.7 4 Sudeste 9 Sudeste -- 928.8 -0.4 47
2017-08-02 06:00:00 18 2 Este 7 Sudeste -- 928.8 -0.9 47
2017-08-02 05:00:00 18 2 Este 10 Sudeste -- 929.4 -0.4 46
2017-08-02 04:00:00 19.2 2 Sudeste 9 Sudeste -- 929.2 -0.6 45
2017-08-02 03:00:00 19.9 0 Calma 12 Sudeste -- 929.7 0.8 43
2017-08-02 02:00:00 20.6 0 Calma 6 Sudeste -- 929.8 1.7 42
2017-08-02 01:00:00 21.4 3 Sudeste 7 Sudeste -- 929.8 2.1 41
2017-08-02 00:00:00 21.9 5 Sudeste 13 Sudeste -- 928.9 2.1 40
2017-08-01 23:00:00 22.3 8 Sudeste 14 Sudeste -- 928.1 1.8 42
2017-08-01 22:00:00 22.3 6 Sudeste 10 Sudeste -- 927.7 1.7 43
2017-08-01 21:00:00 23.9 0 Calma 7 Noroeste -- 926.8 0.8 42
2017-08-01 20:00:00 24.1 2 Oeste 6 Oeste -- 926.3 0.5 42
2017-08-01 19:00:00 23.5 0 Calma 12 Sudeste -- 926 -0.8 43
2017-08-01 18:00:00 22.8 6 Sudeste 11 Sudeste -- 926 0 45
2017-08-01 17:00:00 22.7 0 Calma 17 Oeste -- 925.8 -0.8 45
2017-08-01 16:00:00 21.7 0 Calma 11 Oeste -- 926.8 0.5 47
2017-08-01 15:00:00 21.3 0 Calma 10 Oeste -- 926 -0.9 48
2017-08-01 14:00:00 21.2 3 Oeste 31 Sudoeste -- 926.6 1.1 48
2017-08-01 13:00:00 21.1 2 Oeste 16 Noroeste -- 926.3 0.6 47
2017-08-01 12:00:00 20.3 3 Oeste 18 Oeste -- 926.9 1.2 46
2017-08-01 11:00:00 21.6 0 Calma 7 Sudoeste -- 925.5 0 46
2017-08-01 10:00:00 20.9 0 Calma 5 Oeste -- 925.7 0.3 46
2017-08-01 09:00:00 19.7 0 Calma 11 Sudeste -- 925.7 1.1 46
2017-08-01 08:00:00 18.6 3 Sudeste 8 Sudeste -- 925.5 0.9 46
2017-08-01 07:00:00 19.7 0 Calma 8 Oeste -- 925.4 0.8 43
2017-08-01 06:00:00 20.7 0 Calma 12 Sudeste -- 924.6 -0.1 42
2017-08-01 05:00:00 21.6 7 Sudeste 12 Sudeste -- 924.6 0.1 41
2017-08-01 04:00:00 21.8 6 Sudeste 13 Sudeste -- 924.6 -0.1 41
2017-08-01 03:00:00 22.8 5 Sur 21 Sudeste -- 924.7 0.3 41
2017-08-01 02:00:00 23.3 5 Sur 17 Oeste -- 924.5 0.8 42
2017-08-01 01:00:00 23.9 4 Sudeste 9 Sur -- 924.7 1.8 41
2017-08-01 00:00:00 25 4 Sudeste 8 Sudeste -- 924.4 3 38
2017-07-31 23:00:00 26.4 2 Este 10 Sudeste -- 923.7 2.9 36
2017-07-31 22:00:00 27.4 5 Sudeste 9 Sudeste -- 922.9 2.4 33
2017-07-31 21:00:00 31.2 4 Oeste 18 Oeste -- 921.4 0.5 32
2017-07-31 20:00:00 32.7 8 Oeste 17 Oeste -- 920.8 -0.6 31
2017-07-31 19:00:00 33.7 8 Oeste 21 Oeste -- 920.5 -1.1 32
2017-07-31 18:00:00 34.4 9 Oeste 21 Oeste -- 920.9 -1.1 33
2017-07-31 17:00:00 34.5 7 Oeste 20 Sudoeste -- 921.4 -0.8 32
2017-07-31 16:00:00 34.4 7 Oeste 22 Oeste -- 921.6 -1.5 35
2017-07-31 15:00:00 32.9 6 Noroeste 16 Oeste -- 922 -1.1 36
2017-07-31 14:00:00 31.6 3 Noroeste 12 Norte -- 922.2 -0.9 40
2017-07-31 13:00:00 28.2 3 Oeste 12 Sur -- 923.1 -0.2 43
2017-07-31 12:00:00 25 3 Oeste 12 Oeste -- 923.1 -0.3 48
2017-07-31 11:00:00 23.4 0 Calma 8 Noroeste -- 923.1 -0.2 50
2017-07-31 10:00:00 22.4 0 Calma 6 Oeste -- 923.3 0 50
2017-07-31 09:00:00 21.4 0 Calma 4 Este -- 923.4 0.4 50
2017-07-31 08:00:00 21.3 0 Calma 6 Sudeste -- 923.3 0 47
2017-07-31 07:00:00 22.6 0 Calma 12 Sudeste -- 923.3 -0.2 44
2017-07-31 06:00:00 23.7 4 Este 13 Sudeste -- 923 -1.1 42
2017-07-31 05:00:00 24.1 6 Sudeste 14 Sudeste -- 923.3 -0.8 42
2017-07-31 04:00:00 24.8 8 Sudeste 17 Sudeste -- 923.5 -0.7 42
2017-07-31 03:00:00 25.2 10 Sudeste 14 Sudeste -- 924.1 0.2 41
2017-07-31 02:00:00 26.7 5 Sudeste 12 Este -- 924.1 0.3 36
2017-07-31 01:00:00 27.5 4 Sudeste 14 Sudeste -- 924.2 0.9 33
2017-07-31 00:00:00 28.4 7 Sudeste 16 Sudeste -- 923.9 1 31
2017-07-30 23:00:00 29.3 7 Sudeste 13 Sudeste -- 923.8 0.8 29
2017-07-30 22:00:00 30.3 5 Sudeste 10 Sudeste -- 923.3 0.3 29
2017-07-30 21:00:00 33.7 2 Oeste 19 Oeste -- 922.9 -0.5 27
2017-07-30 20:00:00 35.4 7 Oeste 19 Oeste -- 923 -0.9 26
2017-07-30 19:00:00 35.7 5 Oeste 21 Oeste -- 923 -0.9 25
2017-07-30 18:00:00 36.7 6 Noroeste 21 Oeste -- 923.4 -0.6 24
2017-07-30 17:00:00 38 7 Oeste 29 Sudoeste -- 923.9 -0.7 24
2017-07-30 16:00:00 37.1 7 Oeste 24 Oeste -- 923.9 -1.6 25
2017-07-30 15:00:00 35.9 6 Noroeste 19 Noroeste -- 924 -1.7 27
2017-07-30 14:00:00 33.7 4 Norte 14 Norte -- 924.6 -1.4 31
2017-07-30 13:00:00 31.6 3 Noroeste 11 Sudoeste -- 925.5 -1 35
2017-07-30 12:00:00 28.1 0 Calma 10 Noroeste -- 925.7 -1 38
2017-07-30 11:00:00 26.3 0 Calma 8 Oeste -- 926 -0.8 41
2017-07-30 10:00:00 24.6 0 Calma 5 Sudeste -- 926.5 -0.2 42
2017-07-30 09:00:00 23 3 Este 5 Este -- 926.7 0 43
2017-07-30 08:00:00 23.3 2 Este 10 Sudeste -- 926.8 -0.1 40
2017-07-30 07:00:00 23.6 3 Este 11 Sudeste -- 926.7 -0.6 39
2017-07-30 06:00:00 24.5 5 Este 11 Sudeste -- 926.7 -1.1 38
2017-07-30 05:00:00 25.1 5 Este 13 Sudeste -- 926.9 -1.3 38
2017-07-30 04:00:00 25.7 5 Sudeste 15 Sudeste -- 927.3 -0.8 36
2017-07-30 03:00:00 26.2 4 Este 13 Sudeste -- 927.8 -0.1 33
2017-07-30 02:00:00 26.6 6 Sudeste 12 Sudeste -- 928.2 0.7 29
2017-07-30 01:00:00 27.4 6 Sudeste 12 Sudeste -- 928.1 1.1 26
2017-07-30 00:00:00 27.6 6 Sudeste 17 Este -- 927.9 1.5 25
2017-07-29 23:00:00 28.6 10 Sudeste 16 Sudeste -- 927.5 1.1 24
2017-07-29 22:00:00 30 7 Sudeste 13 Sudeste -- 927 0.6 25
2017-07-29 21:00:00 33.2 2 Oeste 17 Sudoeste -- 926.4 -0.1 24
2017-07-29 20:00:00 34.8 10 Oeste 22 Oeste -- 926.4 -0.4 24
2017-07-29 19:00:00 35.7 8 Noroeste 22 Sudoeste -- 926.4 -0.8 24
2017-07-29 18:00:00 36.4 10 Oeste 27 Oeste -- 926.5 -0.6 24
2017-07-29 17:00:00 36.8 4 Noroeste 21 Oeste -- 926.8 -1 24
2017-07-29 16:00:00 35.9 8 Oeste 23 Oeste -- 927.2 -1.4 25
2017-07-29 15:00:00 35.2 5 Oeste 17 Noroeste -- 927.1 -1.4 27
2017-07-29 14:00:00 32.7 4 Noroeste 12 Oeste -- 927.8 -1.2 29
2017-07-29 13:00:00 30.8 3 Norte 13 Noroeste -- 928.6 -0.5 33
2017-07-29 12:00:00 27.4 0 Calma 8 Norte -- 928.5 -0.5 36
2017-07-29 11:00:00 25.6 0 Calma 7 Norte -- 929 0.2 38
2017-07-29 10:00:00 24.1 2 Sudeste 5 Sudeste -- 929.1 0.5 39
2017-07-29 09:00:00 22.6 4 Este 8 Sudeste -- 929 0.7 40
2017-07-29 08:00:00 22.8 4 Sudeste 10 Sudeste -- 928.8 0.9 38
2017-07-29 07:00:00 23.6 5 Sudeste 13 Sudeste -- 928.6 0.5 36
2017-07-29 06:00:00 24.3 7 Sudeste 13 Sudeste -- 928.3 -0.1 34
2017-07-29 05:00:00 25.2 5 Este 13 Sudeste -- 927.9 -0.6 33
2017-07-29 04:00:00 25.5 6 Este 15 Sudeste -- 928.1 -0.8 32
2017-07-29 03:00:00 26.1 8 Sudeste 19 Sudeste -- 928.4 0.1 30
2017-07-29 02:00:00 26.7 7 Sudeste 17 Sur -- 928.5 0.9 29
2017-07-29 01:00:00 26.9 9 Sudeste 15 Sudeste -- 928.9 2.1 28
2017-07-29 00:00:00 27.6 8 Sudeste 15 Sudeste -- 928.3 2 27
2017-07-28 23:00:00 28.7 5 Sudeste 18 Sudeste -- 927.6 1.2 26
2017-07-28 22:00:00 30.3 6 Sudeste 14 Sudeste -- 926.8 0.7 25
2017-07-28 21:00:00 33.4 2 Sur 18 Oeste -- 926.3 0 24
2017-07-28 20:00:00 35.5 9 Oeste 21 Sudoeste -- 926.4 -0.2 24
2017-07-28 19:00:00 36.6 8 Oeste 20 Oeste -- 926.1 -0.9 24
2017-07-28 18:00:00 37.1 5 Noroeste 21 Oeste -- 926.3 -0.9 24
2017-07-28 17:00:00 36.9 2 Norte 19 Oeste -- 926.6 -1 25
2017-07-28 16:00:00 35.3 5 Oeste 22 Oeste -- 927 -1.4 25
2017-07-28 15:00:00 35.4 7 Oeste 18 Oeste -- 927.2 -0.8 27
2017-07-28 14:00:00 33.4 4 Oeste 16 Norte -- 927.6 -0.8 30
2017-07-28 13:00:00 30.9 2 Norte 10 Norte -- 928.4 -0.2 37
2017-07-28 12:00:00 27.6 2 Noroeste 10 Oeste -- 928 -0.4 39
2017-07-28 11:00:00 25.7 0 Calma 6 Oeste -- 928.4 0.1 42
2017-07-28 10:00:00 24.2 2 Norte 5 Norte -- 928.6 0.5 45
2017-07-28 09:00:00 23 3 Este 9 Sudeste -- 928.4 0.8 44
2017-07-28 08:00:00 22.7 4 Este 9 Sudeste -- 928.3 0.9 43
2017-07-28 07:00:00 22.8 4 Este 12 Sudeste -- 928.1 0.8 41
2017-07-28 06:00:00 24.7 6 Sudeste 15 Sudeste -- 927.6 -0.2 38
2017-07-28 05:00:00 25.1 9 Sudeste 18 Sudeste -- 927.4 -0.2 38
2017-07-28 04:00:00 25.1 7 Sudeste 15 Sudeste -- 927.3 0 38
2017-07-28 03:00:00 24.8 7 Sudeste 15 Sudeste -- 927.8 0.8 38
2017-07-28 02:00:00 25.6 5 Sudeste 12 Sudeste -- 927.6 1 36
2017-07-28 01:00:00 26.4 3 Este 15 Sudeste -- 927.3 1.4 35
2017-07-28 00:00:00 26.8 6 Sudeste 15 Este -- 927 1.8 34
2017-07-27 23:00:00 27.5 8 Sudeste 13 Sudeste -- 926.6 1.5 34
2017-07-27 22:00:00 28.9 5 Sudeste 14 Sudeste -- 925.9 0.8 33
2017-07-27 21:00:00 32 5 Oeste 18 Oeste -- 925.2 0.1 32
2017-07-27 20:00:00 34 6 Oeste 15 Oeste -- 925.1 -0.6 32
2017-07-27 19:00:00 34.7 8 Oeste 19 Sudoeste -- 925.1 -1 31
2017-07-27 18:00:00 34.6 5 Noroeste 21 Oeste -- 925.1 -1.1 30
2017-07-27 17:00:00 35.7 5 Noroeste 21 Norte -- 925.7 -1 30
2017-07-27 16:00:00 34.1 4 Noroeste 19 Oeste -- 926.1 -1.5 32
2017-07-27 15:00:00 33 5 Noroeste 20 Sudoeste -- 926.2 -1.4 34
2017-07-27 14:00:00 31.3 4 Noroeste 16 Oeste -- 926.7 -1.3 37
2017-07-27 13:00:00 29.7 5 Oeste 16 Sudoeste -- 927.6 -0.8 40
2017-07-27 12:00:00 26.3 2 Noroeste 9 Oeste -- 927.6 -0.5 45
2017-07-27 11:00:00 24.6 2 Noroeste 6 Oeste -- 928 0.4 48
2017-07-27 10:00:00 23 0 Calma 3 Oeste -- 928.4 1 49
2017-07-27 09:00:00 22 0 Calma 13 Sudeste -- 928.1 0.8 49
2017-07-27 08:00:00 23.1 8 Sudeste 15 Sudeste -- 927.6 0.5 46
2017-07-27 07:00:00 22.9 6 Sudeste 14 Este -- 927.4 0.1 46
2017-07-27 06:00:00 23.2 6 Sudeste 15 Sudeste -- 927.3 -0.3 44
2017-07-27 05:00:00 23.5 8 Sudeste 16 Sudeste -- 927.1 -0.3 40
2017-07-27 04:00:00 23.4 7 Sudeste 14 Sudeste -- 927.3 -0.2 38
2017-07-27 03:00:00 23.7 5 Este 14 Sudeste -- 927.6 0.1 38
2017-07-27 02:00:00 23.9 8 Sudeste 17 Sudeste -- 927.4 0.5 38
2017-07-27 01:00:00 24 6 Sudeste 13 Sudeste -- 927.5 1.2 39
2017-07-27 00:00:00 24.3 5 Sudeste 13 Sudeste -- 927.5 1.9 38
2017-07-26 23:00:00 26.1 3 Sudeste 13 Sudeste -- 926.9 2.4 36
2017-07-26 22:00:00 27.5 6 Sudeste 21 Oeste -- 926.3 2 36
2017-07-26 21:00:00 30.4 10 Oeste 24 Oeste -- 925.6 0.9 33
2017-07-26 20:00:00 33 8 Oeste 18 Oeste -- 924.5 -0.5 30
2017-07-26 19:00:00 33.3 5 Oeste 21 Oeste -- 924.3 -1.1 30
2017-07-26 18:00:00 33.9 4 Noroeste 20 Oeste -- 924.7 -1.2 29
2017-07-26 17:00:00 34.1 3 Noroeste 17 Noroeste -- 925 -1.8 30
2017-07-26 16:00:00 33.4 4 Noroeste 16 Noroeste -- 925.4 -1.8 33
2017-07-26 15:00:00 31.9 4 Noroeste 18 Noroeste -- 925.9 -1 35
2017-07-26 14:00:00 29.3 4 Oeste 14 Oeste -- 926.8 -0.6 39
2017-07-26 13:00:00 27.5 4 Noroeste 13 Oeste -- 927.2 -0.2 42
2017-07-26 12:00:00 24.1 3 Norte 9 Norte -- 926.9 -0.7 46
2017-07-26 11:00:00 22.9 2 Noroeste 9 Norte -- 927.4 0.3 49
2017-07-26 10:00:00 21.1 0 Calma 6 Este -- 927.4 0.8 53
2017-07-26 09:00:00 19.7 2 Este 6 Sudeste -- 927.6 1.4 56
2017-07-26 08:00:00 20.2 0 Calma 8 Sudeste -- 927.1 0.9 54
2017-07-26 07:00:00 20.8 0 Calma 5 Este -- 926.6 0.6 52
2017-07-26 06:00:00 21.3 2 Este 10 Sudeste -- 926.2 0.1 48
2017-07-26 05:00:00 22.1 0 Calma 13 Sur -- 926.2 0.3 46
2017-07-26 04:00:00 23.1 6 Sur 14 Sur -- 926 0.4 44
2017-07-26 03:00:00 23.2 0 Calma 8 Norte -- 926.1 2 41
2017-07-26 02:00:00 24.3 0 Calma 21 Sur -- 925.9 1.7 43
2017-07-26 01:00:00 24.2 2 Sur 14 Sudoeste -- 925.6 2 43
2017-07-26 00:00:00 26.7 6 Sudeste 15 Nordeste -- 924.1 0.9 33
2017-07-25 23:00:00 26.9 0 Calma 14 Sudeste -- 924.2 1.4 33
2017-07-25 22:00:00 28 0 Calma 15 Oeste -- 923.6 0.7 33
2017-07-25 21:00:00 31.2 8 Oeste 17 Oeste -- 923.2 -0.2 31
2017-07-25 20:00:00 33.3 7 Oeste 21 Oeste -- 922.8 -0.8 30
2017-07-25 19:00:00 33.4 5 Oeste 24 Oeste -- 922.9 -1.2 29
2017-07-25 18:00:00 33.2 5 Noroeste 23 Oeste -- 923.4 -1.1 30
2017-07-25 17:00:00 34 2 Norte 22 Oeste -- 923.6 -1.8 30
2017-07-25 16:00:00 32.8 5 Noroeste 17 Noroeste -- 924.1 -2.1 30
2017-07-25 15:00:00 31.9 4 Noroeste 20 Oeste -- 924.5 -1.7 32
2017-07-25 14:00:00 30.6 5 Oeste 18 Sudoeste -- 925.4 -1.4 34
2017-07-25 13:00:00 28.6 4 Noroeste 12 Oeste -- 926.2 -0.9 36
2017-07-25 12:00:00 25 3 Noroeste 16 Sudoeste -- 926.2 -1 39
2017-07-25 11:00:00 23.8 2 Oeste 10 Oeste -- 926.8 -0.2 42
2017-07-25 10:00:00 22.5 0 Calma 6 Oeste -- 927.1 0.4 42
2017-07-25 09:00:00 20.6 0 Calma 6 Sudeste -- 927.2 1 44
2017-07-25 08:00:00 20.9 0 Calma 6 Nordeste -- 927 0.9 42
2017-07-25 07:00:00 21.8 2 Nordeste 8 Oeste -- 926.7 -0.2 39
2017-07-25 06:00:00 22.7 0 Calma 17 Sudeste -- 926.2 -0.9 37
2017-07-25 05:00:00 22.8 6 Sudeste 16 Sudeste -- 926.1 -1.1 37
2017-07-25 04:00:00 23.1 6 Sudeste 13 Sudeste -- 926.9 -0.5 37
2017-07-25 03:00:00 23.5 3 Este 13 Sudeste -- 927.1 -0.5 36
2017-07-25 02:00:00 24.2 6 Sudeste 17 Sudeste -- 927.2 -0.4 35
2017-07-25 01:00:00 24.5 8 Sudeste 13 Sudeste -- 927.4 0.6 34
2017-07-25 00:00:00 26 5 Sudeste 12 Sudeste -- 927.6 1.1 34
2017-07-24 23:00:00 26.6 7 Sudeste 12 Sudeste -- 927.6 1.1 35
2017-07-24 22:00:00 28.4 6 Sudeste 10 Sudeste -- 926.8 0.1 33
2017-07-24 21:00:00 31 5 Oeste 20 Noroeste -- 926.5 -0.1 32
2017-07-24 20:00:00 32.5 6 Oeste 19 Oeste -- 926.5 -0.8 29
2017-07-24 19:00:00 33.8 7 Oeste 19 Oeste -- 926.7 -1 29
2017-07-24 18:00:00 33.5 5 Noroeste 23 Oeste -- 926.6 -1.5 29
2017-07-24 17:00:00 33.7 9 Oeste 24 Oeste -- 927.3 -1.3 30
2017-07-24 16:00:00 32.8 4 Norte 19 Noroeste -- 927.7 -1.7 31
2017-07-24 15:00:00 30.9 5 Oeste 18 Oeste -- 928.1 -1.7 32
2017-07-24 14:00:00 30.6 6 Sudoeste 14 Oeste -- 928.6 -1.6 34
2017-07-24 13:00:00 28.1 2 Noroeste 10 Oeste -- 929.4 -1.1 39
2017-07-24 12:00:00 24.1 3 Oeste 9 Sudoeste -- 929.8 -0.8 43
2017-07-24 11:00:00 23.2 2 Noroeste 9 Noroeste -- 930.2 -0.5 45
2017-07-24 10:00:00 21.8 0 Calma 7 Norte -- 930.5 0.2 47
2017-07-24 09:00:00 19.9 4 Sudeste 12 Sudeste -- 930.6 0.9 50
2017-07-24 08:00:00 20.2 6 Sudeste 13 Sudeste -- 930.7 0.7 47
2017-07-24 07:00:00 20.6 4 Sudeste 13 Sudeste -- 930.3 0.7 45
2017-07-24 06:00:00 21.5 7 Sudeste 14 Sudeste -- 929.7 0 43
2017-07-24 05:00:00 21.9 7 Sudeste 14 Sudeste -- 930 0 42
2017-07-24 04:00:00 22.6 4 Sudeste 13 Sudeste -- 929.6 -0.4 39
2017-07-24 03:00:00 23 5 Sudeste 14 Sudeste -- 929.7 -0.1 35
2017-07-24 02:00:00 23.9 5 Sudeste 16 Sudeste -- 930 0.7 30
2017-07-24 01:00:00 24.7 5 Sudeste 13 Sudeste -- 930 1.4 28
2017-07-24 00:00:00 24.8 6 Sudeste 17 Sudeste -- 929.8 1.7 26
2017-07-23 23:00:00 25.4 10 Sudeste 16 Sudeste -- 929.3 1.8 25
2017-07-23 22:00:00 26.9 5 Sudeste 12 Sudeste -- 928.6 1.1 25
2017-07-23 21:00:00 31.3 7 Oeste 19 Oeste -- 928.1 0.2 24
2017-07-23 20:00:00 33.4 8 Oeste 20 Oeste -- 927.5 -0.6 23
2017-07-23 19:00:00 33.3 6 Oeste 24 Oeste -- 927.5 -1.1 24
2017-07-23 18:00:00 33.4 10 Oeste 26 Oeste -- 927.9 -1 24
2017-07-23 17:00:00 33.1 5 Noroeste 21 Oeste -- 928.1 -1.4 27
2017-07-23 16:00:00 32.4 6 Oeste 19 Sudoeste -- 928.6 -1.3 26
2017-07-23 15:00:00 31.3 5 Noroeste 19 Oeste -- 928.9 -0.3 33
2017-07-23 14:00:00 29.2 3 Noroeste 12 Noroeste -- 929.5 0 37
2017-07-23 13:00:00 27.5 2 Noroeste 10 Oeste -- 929.9 0.2 38
2017-07-23 12:00:00 22.7 4 Noroeste 8 Norte -- 929.2 -0.1 47
2017-07-23 11:00:00 21 3 Noroeste 8 Noroeste -- 929.5 0.2 49
2017-07-23 10:00:00 20.2 2 Norte 8 Norte -- 929.7 0.9 49
2017-07-23 09:00:00 21.2 0 Calma 7 Sudeste -- 929.3 0.3 49
2017-07-23 08:00:00 20.7 5 Este 12 Sudeste -- 929.3 0.8 46
2017-07-23 07:00:00 19.4 0 Calma 6 Este -- 928.8 0.6 47
2017-07-23 06:00:00 20 0 Calma 11 Sudeste -- 929 0.6 40
2017-07-23 05:00:00 20.7 6 Sudeste 12 Sudeste -- 928.5 0.2 36
2017-07-23 04:00:00 21.5 5 Sudeste 12 Sudeste -- 928.2 0.2 33
2017-07-23 03:00:00 22 4 Este 12 Sudeste -- 928.4 0.7 31
2017-07-23 02:00:00 22.4 6 Sudeste 15 Sudeste -- 928.3 1.3 31
2017-07-23 01:00:00 23.1 9 Sudeste 15 Sudeste -- 928 1.8 32
2017-07-23 00:00:00 23.3 7 Sudeste 14 Sudeste -- 927.7 2.2 32